Time;durP1;ratioP1;P1;durP2;ratioP2;P2;SDS_P1;SDS_P2;PMS_P1;PMS_P2;Temp;Humidity;BMP_temperature;BMP_pressure;BME280_temperature;BME280_humidity;BME280_pressure;Samples;Min_cycle;Max_cycle;Signal;HPM_P1;HPM_P2
2022/07/01 00:00:09;;;;;;;6.63;5.82;;;;;;;;;;5051440;28;20094;-64
2022/07/01 00:02:40;;;;;;;6.78;6.13;;;;;;;;;;5036494;28;20045;-64
2022/07/01 00:05:06;;;;;;;8.13;6.07;;;;;;;;;;5035921;28;20033;-65
2022/07/01 00:07:43;;;;;;;9.00;6.50;;;;;;;;;;5035882;28;20021;-65
2022/07/01 00:10:09;;;;;;;7.65;6.45;;;;;;;;;;5035808;28;20395;-65
2022/07/01 00:12:34;;;;;;;8.57;6.40;;;;;;;;;;5034886;28;20032;-65
2022/07/01 00:15:00;;;;;;;6.80;6.15;;;;;;;;;;5035987;28;20108;-65
2022/07/01 00:17:25;;;;;;;7.45;6.63;;;;;;;;;;5035976;28;20115;-65
2022/07/01 00:19:50;;;;;;;8.02;6.43;;;;;;;;;;5035676;28;20037;-65
2022/07/01 00:22:16;;;;;;;6.93;6.32;;;;;;;;;;5035837;28;20028;-64
2022/07/01 00:24:42;;;;;;;7.15;6.45;;;;;;;;;;5035524;28;20100;-65
2022/07/01 00:27:07;;;;;;;7.63;6.25;;;;;;;;;;5034248;28;20045;-65
2022/07/01 00:29:33;;;;;;;8.13;6.30;;;;;;;;;;5035455;28;20479;-65
2022/07/01 00:31:59;;;;;;;8.50;6.65;;;;;;;;;;5035303;28;20083;-64
2022/07/01 00:34:24;;;;;;;7.60;6.20;;;;;;;;;;5035638;28;20022;-65
2022/07/01 00:36:50;;;;;;;6.57;6.07;;;;;;;;;;5034047;28;20480;-65
2022/07/01 00:39:15;;;;;;;8.07;6.35;;;;;;;;;;5035287;28;20464;-65
2022/07/01 00:41:41;;;;;;;7.35;6.50;;;;;;;;;;5035504;28;20048;-66
2022/07/01 00:44:15;;;;;;;7.80;6.47;;;;;;;;;;5035442;28;20041;-65
2022/07/01 00:46:41;;;;;;;7.18;6.50;;;;;;;;;;5035126;28;20037;-65
2022/07/01 00:49:06;;;;;;;7.57;6.88;;;;;;;;;;5035092;28;20079;-65
2022/07/01 00:51:31;;;;;;;7.18;6.60;;;;;;;;;;5034929;28;20108;-65
2022/07/01 00:53:58;;;;;;;7.45;6.75;;;;;;;;;;5035817;28;20038;-64
2022/07/01 00:56:24;;;;;;;8.82;6.07;;;;;;;;;;5050463;28;20416;-66
2022/07/01 00:58:49;;;;;;;7.75;6.60;;;;;;;;;;5035172;28;20076;-65
2022/07/01 01:01:15;;;;;;;7.95;6.97;;;;;;;;;;5034801;28;20060;-65
2022/07/01 01:03:40;;;;;;;7.20;6.53;;;;;;;;;;5033875;28;20108;-65
2022/07/01 01:06:06;;;;;;;7.22;6.65;;;;;;;;;;5035014;28;20040;-65
2022/07/01 01:08:31;;;;;;;7.57;6.80;;;;;;;;;;5034745;28;20021;-65
2022/07/01 01:10:56;;;;;;;9.02;6.65;;;;;;;;;;5034873;28;20029;-65
2022/07/01 01:13:22;;;;;;;6.97;6.38;;;;;;;;;;5034921;28;20032;-65
2022/07/01 01:15:49;;;;;;;7.30;6.45;;;;;;;;;;5034554;28;20380;-65
2022/07/01 01:18:14;;;;;;;7.78;7.00;;;;;;;;;;5034826;28;20518;-65
2022/07/01 01:20:39;;;;;;;7.22;6.65;;;;;;;;;;5034461;28;20030;-65
2022/07/01 01:23:05;;;;;;;6.80;6.20;;;;;;;;;;5034408;28;20033;-65
2022/07/01 01:25:34;;;;;;;7.70;6.80;;;;;;;;;;5034306;28;20491;-65
2022/07/01 01:28:00;;;;;;;7.63;6.93;;;;;;;;;;5034918;28;20040;-65
2022/07/01 01:30:25;;;;;;;7.43;6.65;;;;;;;;;;5034296;28;20026;-65
2022/07/01 01:32:50;;;;;;;7.53;6.90;;;;;;;;;;5034470;28;20482;-64
2022/07/01 01:35:16;;;;;;;8.45;6.72;;;;;;;;;;5034201;28;20025;-71
2022/07/01 01:37:41;;;;;;;7.53;6.88;;;;;;;;;;5049621;28;20101;-65
2022/07/01 01:40:07;;;;;;;7.68;6.78;;;;;;;;;;5034402;28;20029;-64
2022/07/01 01:42:33;;;;;;;8.00;7.30;;;;;;;;;;5034365;28;20060;-64
2022/07/01 01:44:58;;;;;;;7.30;6.72;;;;;;;;;;5034026;28;20075;-66
2022/07/01 01:47:23;;;;;;;7.40;6.80;;;;;;;;;;5034054;28;20145;-65
2022/07/01 01:49:49;;;;;;;7.28;6.57;;;;;;;;;;5034557;28;20041;-65
2022/07/01 01:52:14;;;;;;;10.48;7.25;;;;;;;;;;5033910;28;20083;-65
2022/07/01 01:54:43;;;;;;;8.00;7.20;;;;;;;;;;5033703;28;20057;-65
2022/07/01 01:57:08;;;;;;;8.60;7.18;;;;;;;;;;5034418;28;20040;-65
2022/07/01 01:59:34;;;;;;;8.07;7.20;;;;;;;;;;5032614;28;20041;-65
2022/07/01 02:01:59;;;;;;;7.47;6.75;;;;;;;;;;5034084;28;20105;-64
2022/07/01 02:04:24;;;;;;;7.90;6.95;;;;;;;;;;5033813;28;20053;-65
2022/07/01 02:06:50;;;;;;;7.55;6.88;;;;;;;;;;5032862;28;20456;-65
2022/07/01 02:09:16;;;;;;;8.80;7.03;;;;;;;;;;5032454;28;20072;-65
2022/07/01 02:11:41;;;;;;;7.40;6.70;;;;;;;;;;5033659;28;20021;-65
2022/07/01 02:14:07;;;;;;;7.90;7.28;;;;;;;;;;5016021;28;20033;-65
2022/07/01 02:16:32;;;;;;;8.65;7.32;;;;;;;;;;5032388;28;20023;-65
2022/07/01 02:18:57;;;;;;;8.00;7.30;;;;;;;;;;5033630;28;20072;-65
2022/07/01 02:21:23;;;;;;;8.30;7.50;;;;;;;;;;5033637;28;20025;-65
2022/07/01 02:23:48;;;;;;;8.32;7.63;;;;;;;;;;5033571;28;20499;-65
2022/07/01 02:26:13;;;;;;;8.20;7.47;;;;;;;;;;5033895;28;20036;-65
2022/07/01 02:28:39;;;;;;;8.15;7.45;;;;;;;;;;5033563;28;20076;-65
2022/07/01 02:31:04;;;;;;;8.23;7.10;;;;;;;;;;5033453;28;20586;-65
2022/07/01 02:33:30;;;;;;;7.88;7.07;;;;;;;;;;5033771;28;20040;-65
2022/07/01 02:35:56;;;;;;;9.15;7.18;;;;;;;;;;5050971;28;20049;-65
2022/07/01 02:38:21;;;;;;;7.88;7.18;;;;;;;;;;5037547;28;20383;-65
2022/07/01 02:40:47;;;;;;;9.02;7.40;;;;;;;;;;5037735;28;20101;-65
2022/07/01 02:43:13;;;;;;;8.40;6.68;;;;;;;;;;5037694;28;20030;-65
2022/07/01 02:45:39;;;;;;;7.57;6.88;;;;;;;;;;5037376;28;20025;-65
2022/07/01 02:48:05;;;;;;;8.80;7.97;;;;;;;;;;5037591;28;20087;-65
2022/07/01 02:50:30;;;;;;;8.90;7.53;;;;;;;;;;5036061;28;20022;-65
2022/07/01 02:52:56;;;;;;;7.95;7.30;;;;;;;;;;5036998;28;20432;-65
2022/07/01 02:55:21;;;;;;;8.85;7.05;;;;;;;;;;5037473;28;20044;-65
2022/07/01 02:57:51;;;;;;;7.43;6.72;;;;;;;;;;5037186;28;20387;-65
2022/07/01 03:00:17;;;;;;;7.57;6.77;;;;;;;;;;5052662;28;20029;-65
2022/07/01 03:02:43;;;;;;;8.98;7.28;;;;;;;;;;5035828;28;20034;-64
2022/07/01 03:05:10;;;;;;;7.88;7.18;;;;;;;;;;5037361;28;20029;-65
2022/07/01 03:07:35;;;;;;;8.00;7.20;;;;;;;;;;5037010;28;20037;-65
2022/07/01 03:10:01;;;;;;;7.97;7.10;;;;;;;;;;5035726;28;20021;-65
2022/07/01 03:12:28;;;;;;;9.68;6.95;;;;;;;;;;5036811;28;20442;-65
2022/07/01 03:15:05;;;;;;;8.00;7.30;;;;;;;;;;5037156;28;20072;-65
2022/07/01 03:17:31;;;;;;;7.95;7.10;;;;;;;;;;5037329;28;20025;-65
2022/07/01 03:20:32;;;;;;;8.48;7.68;;;;;;;;;;5055854;23;20054;-70
2022/07/01 03:22:58;;;;;;;8.70;7.57;;;;;;;;;;5016839;28;20038;-71
2022/07/01 03:28:07;;;;;;;9.00;7.40;;;;;;;;;;5004709;23;20058;-70
2022/07/01 03:30:33;;;;;;;10.57;7.70;;;;;;;;;;4963614;28;20145;-70
2022/07/01 03:32:58;;;;;;;8.13;7.45;;;;;;;;;;4997358;28;20031;-71
2022/07/01 03:35:35;;;;;;;10.38;7.15;;;;;;;;;;4997058;28;20030;-71
2022/07/01 03:38:01;;;;;;;8.88;8.07;;;;;;;;;;4997181;28;20118;-71
2022/07/01 03:40:26;;;;;;;10.00;7.53;;;;;;;;;;4979591;28;20441;-71
2022/07/01 03:42:52;;;;;;;10.68;7.60;;;;;;;;;;4979541;28;20038;-71
2022/07/01 03:45:17;;;;;;;8.55;7.57;;;;;;;;;;4997420;28;20029;-71
2022/07/01 03:47:47;;;;;;;8.20;6.82;;;;;;;;;;4995615;28;20037;-71
2022/07/01 03:50:13;;;;;;;7.63;6.88;;;;;;;;;;4996838;28;20113;-71
2022/07/01 03:52:38;;;;;;;7.75;7.03;;;;;;;;;;4996947;28;20130;-71
2022/07/01 03:55:03;;;;;;;8.18;7.47;;;;;;;;;;4997025;28;20049;-71
2022/07/01 03:57:29;;;;;;;7.68;6.95;;;;;;;;;;4996702;28;20030;-70
2022/07/01 03:59:54;;;;;;;8.25;7.47;;;;;;;;;;4997161;28;20052;-71
2022/07/01 04:02:19;;;;;;;8.65;7.95;;;;;;;;;;4979079;28;20404;-71
2022/07/01 04:04:45;;;;;;;8.40;7.53;;;;;;;;;;4996558;28;20026;-71
2022/07/01 04:07:11;;;;;;;8.52;7.53;;;;;;;;;;4979003;28;20034;-71
2022/07/01 04:09:36;;;;;;;8.02;7.22;;;;;;;;;;4997009;28;20030;-70
2022/07/01 04:12:02;;;;;;;7.97;7.35;;;;;;;;;;4996662;28;20054;-70
2022/07/01 04:14:29;;;;;;;8.13;7.32;;;;;;;;;;4996664;28;20023;-70
2022/07/01 04:16:55;;;;;;;11.75;8.50;;;;;;;;;;4996585;28;20041;-70
2022/07/01 04:19:21;;;;;;;12.07;8.10;;;;;;;;;;4979487;28;20022;-71
2022/07/01 04:24:32;;;;;;;8.38;7.50;;;;;;;;;;4996714;28;20061;-70
2022/07/01 04:26:58;;;;;;;7.63;6.85;;;;;;;;;;4996120;28;20516;-71
2022/07/01 04:29:23;;;;;;;8.23;7.53;;;;;;;;;;4978600;28;20448;-71
2022/07/01 04:31:49;;;;;;;8.27;7.43;;;;;;;;;;4996524;28;20034;-71
2022/07/01 04:34:15;;;;;;;7.90;7.30;;;;;;;;;;4995983;28;20417;-70
2022/07/01 04:36:41;;;;;;;8.15;7.43;;;;;;;;;;4978505;28;20118;-71
2022/07/01 04:39:06;;;;;;;8.60;7.38;;;;;;;;;;4995893;28;20113;-70
2022/07/01 04:44:17;;;;;;;6.90;6.25;;;;;;;;;;4995776;28;20045;-64
2022/07/01 04:46:42;;;;;;;7.10;6.57;;;;;;;;;;4995908;28;20030;-64
2022/07/01 04:49:07;;;;;;;7.65;6.95;;;;;;;;;;4978294;28;20034;-65
2022/07/01 04:51:34;;;;;;;8.20;6.72;;;;;;;;;;4995614;28;20061;-65
2022/07/01 04:54:06;;;;;;;7.25;6.22;;;;;;;;;;4995942;28;20124;-65
2022/07/01 04:56:32;;;;;;;7.28;6.57;;;;;;;;;;4995579;28;20122;-65
2022/07/01 04:58:58;;;;;;;7.20;6.55;;;;;;;;;;4995518;28;20018;-65
2022/07/01 05:01:23;;;;;;;8.07;7.03;;;;;;;;;;4995767;28;20448;-65
2022/07/01 05:03:49;;;;;;;8.38;6.85;;;;;;;;;;4995458;28;20023;-65
2022/07/01 05:06:14;;;;;;;7.72;7.03;;;;;;;;;;4995373;28;20384;-65
2022/07/01 05:08:40;;;;;;;7.97;7.25;;;;;;;;;;4995658;28;20153;-65
2022/07/01 05:11:06;;;;;;;9.13;8.27;;;;;;;;;;4995218;28;20113;-65
2022/07/01 05:13:33;;;;;;;8.30;7.43;;;;;;;;;;4995564;28;20468;-65
2022/07/01 05:15:59;;;;;;;7.68;6.68;;;;;;;;;;5008624;23;20086;-70
2022/07/01 05:23:52;;;;;;;7.35;6.65;;;;;;;;;;4995061;28;20026;-70
2022/07/01 05:26:17;;;;;;;7.50;6.93;;;;;;;;;;4995574;28;20033;-70
2022/07/01 05:28:44;;;;;;;7.03;6.43;;;;;;;;;;4995258;28;20065;-71
2022/07/01 05:31:09;;;;;;;9.68;7.07;;;;;;;;;;4995120;28;20019;-70
2022/07/01 05:33:35;;;;;;;7.65;7.07;;;;;;;;;;4977629;28;20072;-71
2022/07/01 05:36:01;;;;;;;7.53;6.82;;;;;;;;;;4994866;28;20018;-70
2022/07/01 05:38:27;;;;;;;8.18;6.75;;;;;;;;;;4994855;28;20045;-70
2022/07/01 05:40:53;;;;;;;8.90;7.13;;;;;;;;;;4995340;28;20030;-71
2022/07/01 05:43:19;;;;;;;7.53;6.72;;;;;;;;;;4994746;28;20034;-71
2022/07/01 05:45:44;;;;;;;8.75;7.85;;;;;;;;;;4977618;28;20018;-70
2022/07/01 05:48:09;;;;;;;7.65;7.05;;;;;;;;;;4995175;28;20117;-70
2022/07/01 05:50:34;;;;;;;9.40;7.30;;;;;;;;;;4994687;28;20022;-70
2022/07/01 05:53:00;;;;;;;9.15;7.75;;;;;;;;;;4994525;28;20388;-70
2022/07/01 05:55:25;;;;;;;7.97;7.35;;;;;;;;;;4994552;28;20014;-70
2022/07/01 05:57:51;;;;;;;7.47;6.55;;;;;;;;;;4977192;28;20030;-70
2022/07/01 06:00:17;;;;;;;7.35;6.75;;;;;;;;;;4994791;28;20050;-70
2022/07/01 06:02:42;;;;;;;8.05;6.70;;;;;;;;;;4994443;28;20476;-70
2022/07/01 06:05:08;;;;;;;8.48;7.30;;;;;;;;;;4994396;28;20065;-70
2022/07/01 06:07:33;;;;;;;7.72;7.03;;;;;;;;;;4994702;28;20038;-71
2022/07/01 06:09:58;;;;;;;8.27;7.55;;;;;;;;;;4994006;28;20046;-70
2022/07/01 06:12:24;;;;;;;11.73;8.40;;;;;;;;;;4994526;28;20022;-71
2022/07/01 06:14:49;;;;;;;8.10;7.40;;;;;;;;;;4994501;28;20011;-70
2022/07/01 06:17:15;;;;;;;8.50;7.70;;;;;;;;;;4977255;28;20038;-71
2022/07/01 06:19:41;;;;;;;8.57;7.88;;;;;;;;;;4994532;28;20062;-70
2022/07/01 06:22:06;;;;;;;10.88;7.65;;;;;;;;;;4994262;28;20038;-70
2022/07/01 06:24:32;;;;;;;7.93;7.13;;;;;;;;;;4994506;28;20369;-70
2022/07/01 06:26:58;;;;;;;8.48;7.78;;;;;;;;;;4994476;28;20030;-71
2022/07/01 06:29:23;;;;;;;10.90;7.90;;;;;;;;;;4976773;28;20014;-70
2022/07/01 06:31:48;;;;;;;9.43;7.47;;;;;;;;;;4994379;28;20077;-70
2022/07/01 06:34:14;;;;;;;8.73;7.40;;;;;;;;;;4994704;28;20023;-70
2022/07/01 06:36:39;;;;;;;7.05;6.18;;;;;;;;;;4994113;28;20030;-70
2022/07/01 06:39:04;;;;;;;8.45;7.70;;;;;;;;;;4976594;28;20073;-70
2022/07/01 06:41:30;;;;;;;8.88;6.15;;;;;;;;;;4994365;28;20038;-70
2022/07/01 06:43:56;;;;;;;9.43;7.88;;;;;;;;;;4994100;28;20054;-70
2022/07/01 06:46:22;;;;;;;8.13;7.43;;;;;;;;;;4994310;28;20026;-71
2022/07/01 06:48:47;;;;;;;7.68;6.97;;;;;;;;;;4994029;28;20030;-70
2022/07/01 06:51:13;;;;;;;7.78;7.07;;;;;;;;;;4993931;28;20058;-70
2022/07/01 06:53:38;;;;;;;8.27;7.60;;;;;;;;;;4994543;28;20101;-71
2022/07/01 06:56:04;;;;;;;8.32;7.70;;;;;;;;;;4994240;28;20073;-70
2022/07/01 06:58:29;;;;;;;8.85;8.10;;;;;;;;;;4993949;28;20018;-70
2022/07/01 07:00:55;;;;;;;10.30;8.43;;;;;;;;;;4993917;28;20034;-70
2022/07/01 07:03:20;;;;;;;9.32;8.32;;;;;;;;;;4994161;28;20109;-70
2022/07/01 07:05:45;;;;;;;8.65;7.90;;;;;;;;;;4993879;28;20110;-71
2022/07/01 07:08:11;;;;;;;9.52;8.52;;;;;;;;;;5007167;23;20444;-65
2022/07/01 07:10:36;;;;;;;7.45;6.85;;;;;;;;;;4994077;28;20030;-65
2022/07/01 07:13:02;;;;;;;11.82;8.65;;;;;;;;;;4994303;28;20022;-65
2022/07/01 07:15:27;;;;;;;10.27;9.07;;;;;;;;;;4994047;28;20381;-65
2022/07/01 07:17:57;;;;;;;9.40;8.60;;;;;;;;;;4960291;28;20061;-65
2022/07/01 07:20:26;;;;;;;9.82;8.75;;;;;;;;;;4994076;28;20033;-65
2022/07/01 07:22:51;;;;;;;9.00;8.20;;;;;;;;;;4996938;28;20026;-65
2022/07/01 07:25:17;;;;;;;8.10;7.40;;;;;;;;;;4997274;28;20465;-65
2022/07/01 07:27:45;;;;;;;6.72;6.30;;;;;;;;;;4997533;28;20030;-65
2022/07/01 07:30:14;;;;;;;6.75;6.25;;;;;;;;;;4997225;28;20392;-65
2022/07/01 07:32:39;;;;;;;5.55;5.00;;;;;;;;;;4997378;28;20034;-65
2022/07/01 07:35:06;;;;;;;5.97;5.13;;;;;;;;;;4997136;28;20404;-65
2022/07/01 07:37:32;;;;;;;5.38;4.95;;;;;;;;;;4997323;28;20109;-65
2022/07/01 07:39:58;;;;;;;5.93;5.40;;;;;;;;;;4997035;28;20113;-65
2022/07/01 07:42:23;;;;;;;6.32;5.57;;;;;;;;;;4997007;28;20022;-65
2022/07/01 07:44:48;;;;;;;5.95;5.53;;;;;;;;;;4996935;28;20030;-63
2022/07/01 07:47:14;;;;;;;5.97;5.45;;;;;;;;;;4997210;28;20023;-65
2022/07/01 07:49:39;;;;;;;5.22;4.82;;;;;;;;;;4997141;28;20473;-65
2022/07/01 07:52:05;;;;;;;5.60;4.65;;;;;;;;;;4996965;28;20030;-65
2022/07/01 07:54:33;;;;;;;5.72;5.20;;;;;;;;;;4996742;28;20035;-65
2022/07/01 07:56:58;;;;;;;5.13;4.82;;;;;;;;;;4997009;28;20449;-65
2022/07/01 07:59:24;;;;;;;5.45;4.75;;;;;;;;;;4996921;28;20026;-63
2022/07/01 08:01:49;;;;;;;7.45;5.60;;;;;;;;;;4996670;28;20450;-64
2022/07/01 08:04:15;;;;;;;5.05;4.65;;;;;;;;;;4996594;28;20034;-64
2022/07/01 08:06:40;;;;;;;6.45;5.22;;;;;;;;;;4997133;28;20081;-65
2022/07/01 08:09:06;;;;;;;6.22;5.82;;;;;;;;;;4996322;28;20129;-66
2022/07/01 08:11:31;;;;;;;5.13;4.43;;;;;;;;;;4996884;28;20034;-65
2022/07/01 08:13:57;;;;;;;5.75;5.35;;;;;;;;;;4996685;28;20038;-64
2022/07/01 08:16:22;;;;;;;6.75;5.63;;;;;;;;;;4996636;28;20023;-65
2022/07/01 08:18:48;;;;;;;6.90;6.40;;;;;;;;;;4996336;28;20023;-65
2022/07/01 08:21:14;;;;;;;6.90;6.30;;;;;;;;;;4996585;28;20444;-65
2022/07/01 08:23:39;;;;;;;11.00;6.57;;;;;;;;;;4996253;28;20126;-65
2022/07/01 08:26:05;;;;;;;6.80;6.15;;;;;;;;;;4996155;28;20461;-65
2022/07/01 08:28:30;;;;;;;7.25;6.05;;;;;;;;;;4996168;28;20384;-65
2022/07/01 08:30:56;;;;;;;6.28;5.32;;;;;;;;;;4996084;28;20022;-65
2022/07/01 08:33:22;;;;;;;6.57;5.97;;;;;;;;;;4978014;28;20530;-64
2022/07/01 08:35:48;;;;;;;5.60;5.05;;;;;;;;;;4996590;28;20014;-65
2022/07/01 08:38:13;;;;;;;5.00;4.55;;;;;;;;;;4996234;28;20397;-65
2022/07/01 08:40:39;;;;;;;5.70;5.13;;;;;;;;;;4979118;28;20054;-65
2022/07/01 08:43:06;;;;;;;6.55;5.95;;;;;;;;;;4996142;28;20035;-65
2022/07/01 08:45:35;;;;;;;7.15;5.43;;;;;;;;;;4996127;28;20412;-65
2022/07/01 08:48:01;;;;;;;5.65;4.70;;;;;;;;;;4978361;28;20034;-65
2022/07/01 08:50:28;;;;;;;5.53;5.13;;;;;;;;;;4995987;28;20022;-66
2022/07/01 08:52:53;;;;;;;5.45;5.05;;;;;;;;;;4995890;28;20032;-65
2022/07/01 08:55:19;;;;;;;6.20;5.70;;;;;;;;;;4995672;28;20019;-65
2022/07/01 08:58:01;;;;;;;6.20;5.60;;;;;;;;;;5002394;23;20022;-65
2022/07/01 09:00:31;;;;;;;5.68;5.18;;;;;;;;;;5021968;23;20041;-70
2022/07/01 09:02:57;;;;;;;;;;;;;;;;;;5016046;28;20080;-70
2022/07/01 09:05:23;;;;;;;6.23;5.50;;;;;;;;;;4997844;28;19909;-70
2022/07/01 09:07:49;;;;;;;7.75;5.32;;;;;;;;;;5015242;28;20268;-71
2022/07/01 09:10:20;;;;;;;5.20;4.72;;;;;;;;;;5015207;28;20079;-71
2022/07/01 09:12:46;;;;;;;8.07;6.50;;;;;;;;;;5015084;28;20057;-71
2022/07/01 09:15:19;;;;;;;6.20;5.30;;;;;;;;;;5014919;28;20104;-70
2022/07/01 09:17:44;;;;;;;5.15;4.65;;;;;;;;;;5015361;28;20506;-70
2022/07/01 09:20:22;;;;;;;4.85;4.50;;;;;;;;;;5014797;28;20018;-71
2022/07/01 09:22:57;;;;;;;5.38;4.97;;;;;;;;;;5014728;28;20036;-70
2022/07/01 09:25:31;;;;;;;5.05;4.43;;;;;;;;;;5015222;28;20033;-65
2022/07/01 09:28:03;;;;;;;4.57;4.28;;;;;;;;;;5014912;28;20156;-65
2022/07/01 09:30:28;;;;;;;4.90;4.32;;;;;;;;;;5014867;28;20038;-65
2022/07/01 09:33:06;;;;;;;5.57;4.22;;;;;;;;;;4996881;28;20082;-64
2022/07/01 09:35:32;;;;;;;5.03;4.72;;;;;;;;;;5014527;28;20064;-65
2022/07/01 09:37:57;;;;;;;7.80;4.45;;;;;;;;;;5014731;28;20061;-65
2022/07/01 09:40:23;;;;;;;5.57;4.50;;;;;;;;;;5014719;28;20054;-65
2022/07/01 09:42:49;;;;;;;5.80;4.90;;;;;;;;;;5014933;28;20025;-66
2022/07/01 09:45:14;;;;;;;5.72;4.53;;;;;;;;;;5013735;28;20034;-65
2022/07/01 09:47:40;;;;;;;5.18;4.68;;;;;;;;;;5014364;28;20465;-66
2022/07/01 09:50:10;;;;;;;5.65;5.15;;;;;;;;;;5021759;23;20030;31
2022/07/01 09:52:36;;;;;;;8.48;5.43;;;;;;;;;;4954554;28;20129;-70
2022/07/01 09:55:01;;;;;;;7.32;5.53;;;;;;;;;;4956208;28;20071;-70
2022/07/01 09:57:27;;;;;;;8.45;6.03;;;;;;;;;;4956114;29;20027;-70
2022/07/01 09:59:53;;;;;;;9.40;5.97;;;;;;;;;;4956122;28;20046;-70
2022/07/01 10:02:19;;;;;;;8.73;5.93;;;;;;;;;;4956320;28;20454;-70
2022/07/01 10:04:56;;;;;;;6.22;5.32;;;;;;;;;;4956068;28;20023;-70
2022/07/01 10:07:22;;;;;;;6.05;5.60;;;;;;;;;;4956289;29;20023;-70
2022/07/01 10:09:57;;;;;;;5.57;5.13;;;;;;;;;;4954467;29;20470;-70
2022/07/01 10:12:31;;;;;;;6.05;5.03;;;;;;;;;;4956160;28;20050;-71
2022/07/01 10:14:59;;;;;;;5.35;5.05;;;;;;;;;;4956481;29;20362;-70
2022/07/01 10:17:32;;;;;;;6.43;5.63;;;;;;;;;;4955901;28;20066;-70
2022/07/01 10:20:06;;;;;;;5.30;4.65;;;;;;;;;;4954334;29;20031;-70
2022/07/01 10:22:35;;;;;;;5.47;5.00;;;;;;;;;;4955617;28;20478;-70
2022/07/01 10:25:18;;;;;;;4.95;4.57;;;;;;;;;;4955598;28;20161;-70
2022/07/01 10:27:44;;;;;;;4.82;4.53;;;;;;;;;;4955851;29;20485;-70
2022/07/01 10:30:13;;;;;;;8.57;5.43;;;;;;;;;;4956078;28;20062;-70
2022/07/01 10:32:59;;;;;;;6.32;5.78;;;;;;;;;;4955738;29;20038;-70
2022/07/01 10:35:24;;;;;;;6.18;5.78;;;;;;;;;;4954220;28;20370;-70
2022/07/01 10:37:57;;;;;;;7.10;5.07;;;;;;;;;;4970834;28;20118;-70
2022/07/01 10:40:39;;;;;;;5.43;4.93;;;;;;;;;;4955686;29;20046;-70
2022/07/01 10:43:04;;;;;;;5.57;5.20;;;;;;;;;;4955676;29;20037;-70
2022/07/01 10:45:40;;;;;;;9.73;5.43;;;;;;;;;;4955394;28;20027;-70
2022/07/01 10:48:32;;;;;;;7.03;5.35;;;;;;;;;;4954159;29;20466;-70
2022/07/01 10:51:30;;;;;;;8.10;6.10;;;;;;;;;;4992679;23;20047;-65
2022/07/01 10:53:56;;;;;;;5.03;4.72;;;;;;;;;;4973735;28;20078;-65
2022/07/01 10:56:37;;;;;;;6.60;5.97;;;;;;;;;;4975564;28;20110;-65
2022/07/01 10:59:02;;;;;;;6.93;6.38;;;;;;;;;;4977198;28;20079;-65
2022/07/01 11:01:30;;;;;;;8.20;6.30;;;;;;;;;;4978559;28;20075;-65
2022/07/01 11:03:55;;;;;;;6.72;6.13;;;;;;;;;;4960995;28;20544;-66
2022/07/01 11:06:20;;;;;;;6.68;5.85;;;;;;;;;;4978447;28;20019;-65
2022/07/01 11:08:49;;;;;;;5.63;5.07;;;;;;;;;;4978135;28;20477;-65
2022/07/01 11:11:14;;;;;;;5.63;5.22;;;;;;;;;;4978011;28;20018;-65
2022/07/01 11:13:40;;;;;;;7.03;6.28;;;;;;;;;;4978309;28;20031;-65
2022/07/01 11:16:06;;;;;;;8.13;5.35;;;;;;;;;;4977978;28;20019;-65
2022/07/01 11:18:32;;;;;;;5.78;4.63;;;;;;;;;;4978001;28;20019;-65
2022/07/01 11:21:04;;;;;;;5.88;5.47;;;;;;;;;;4978228;28;20033;-63
2022/07/01 11:23:29;;;;;;;5.88;5.28;;;;;;;;;;4978164;28;20058;-65
2022/07/01 11:25:55;;;;;;;7.38;6.47;;;;;;;;;;4978135;28;20508;-64
2022/07/01 11:28:21;;;;;;;6.80;5.15;;;;;;;;;;4978059;28;20090;-66
2022/07/01 11:30:46;;;;;;;7.78;6.00;;;;;;;;;;4978028;28;20054;-65
2022/07/01 11:33:12;;;;;;;7.60;5.80;;;;;;;;;;4944375;28;20496;-64
2022/07/01 11:41:18;;;;;;;5.00;4.68;;;;;;;;;;4978097;28;20050;-66
2022/07/01 11:43:44;;;;;;;4.47;4.18;;;;;;;;;;4977521;28;20035;-65
2022/07/01 11:46:09;;;;;;;4.18;3.88;;;;;;;;;;4977481;28;20026;-65
2022/07/01 11:48:36;;;;;;;7.00;4.88;;;;;;;;;;4977442;28;20034;-65
2022/07/01 11:51:05;;;;;;;5.18;4.70;;;;;;;;;;4977675;28;20026;-64
2022/07/01 11:53:31;;;;;;;6.88;5.20;;;;;;;;;;5010174;28;20046;-65
2022/07/01 11:55:56;;;;;;;5.80;4.97;;;;;;;;;;4996809;28;20026;-65
2022/07/01 11:58:22;;;;;;;8.05;5.63;;;;;;;;;;4997078;28;20030;-65
2022/07/01 12:00:48;;;;;;;10.00;5.95;;;;;;;;;;4996952;28;20022;-64
2022/07/01 12:03:14;;;;;;;8.25;6.10;;;;;;;;;;4996950;28;20044;-65
2022/07/01 12:05:39;;;;;;;5.75;5.32;;;;;;;;;;4997167;28;20019;-65
2022/07/01 12:08:05;;;;;;;6.50;5.60;;;;;;;;;;4995583;28;20383;-65
2022/07/01 12:10:31;;;;;;;5.82;5.07;;;;;;;;;;4996821;28;20069;-65
2022/07/01 12:12:56;;;;;;;6.03;5.40;;;;;;;;;;4996669;28;20388;-65
2022/07/01 12:15:22;;;;;;;6.55;5.50;;;;;;;;;;5011496;28;20085;-65
2022/07/01 12:17:48;;;;;;;5.78;5.28;;;;;;;;;;4996402;28;20105;-65
2022/07/01 12:20:13;;;;;;;6.30;5.65;;;;;;;;;;4996692;28;20430;-64
2022/07/01 12:22:39;;;;;;;5.88;5.28;;;;;;;;;;4996628;28;20031;-65
2022/07/01 12:25:05;;;;;;;8.68;5.38;;;;;;;;;;4996344;28;20034;-65
2022/07/01 12:27:33;;;;;;;6.25;5.57;;;;;;;;;;5011400;28;20491;-65
2022/07/01 12:29:58;;;;;;;6.63;4.85;;;;;;;;;;4996456;28;20034;-64
2022/07/01 12:32:25;;;;;;;7.15;5.00;;;;;;;;;;4979040;28;20034;-65
2022/07/01 12:35:00;;;;;;;7.18;5.30;;;;;;;;;;4996360;28;20014;-65
2022/07/01 12:37:32;;;;;;;6.50;5.60;;;;;;;;;;4996313;28;20105;-65
2022/07/01 12:40:02;;;;;;;6.90;5.82;;;;;;;;;;4998100;28;20018;-65
2022/07/01 12:42:29;;;;;;;6.78;5.50;;;;;;;;;;4996398;28;20161;-71
2022/07/01 12:44:55;;;;;;;7.38;6.35;;;;;;;;;;4995889;28;20034;-70
2022/07/01 12:47:28;;;;;;;8.38;5.97;;;;;;;;;;4995836;28;20022;-71
2022/07/01 12:50:12;;;;;;;7.05;5.63;;;;;;;;;;4996034;28;20077;-70
2022/07/01 12:52:38;;;;;;;6.25;5.68;;;;;;;;;;4995617;28;20054;-71
2022/07/01 12:55:13;;;;;;;6.53;5.80;;;;;;;;;;4978207;28;20037;-70
2022/07/01 12:57:39;;;;;;;11.15;7.60;;;;;;;;;;4995804;28;20161;-70
2022/07/01 13:00:04;;;;;;;5.35;4.85;;;;;;;;;;4995829;28;20105;-70
2022/07/01 13:02:30;;;;;;;5.97;5.43;;;;;;;;;;4995395;28;20034;-71
2022/07/01 13:04:55;;;;;;;6.43;4.68;;;;;;;;;;4995497;28;20547;-70
2022/07/01 13:07:21;;;;;;;5.95;5.35;;;;;;;;;;4978498;28;20040;-70
2022/07/01 13:09:46;;;;;;;8.07;5.32;;;;;;;;;;4995367;28;20049;-71
2022/07/01 13:12:12;;;;;;;5.65;5.15;;;;;;;;;;4995306;28;20519;-70
2022/07/01 13:14:37;;;;;;;7.53;4.68;;;;;;;;;;4995266;28;20480;-70
2022/07/01 13:17:03;;;;;;;5.90;4.63;;;;;;;;;;4995258;28;20038;-70
2022/07/01 13:19:28;;;;;;;8.18;4.70;;;;;;;;;;4995268;28;20023;-70
2022/07/01 13:21:53;;;;;;;4.97;4.45;;;;;;;;;;4995393;28;20350;-71
2022/07/01 13:24:20;;;;;;;7.15;4.63;;;;;;;;;;4995364;28;20109;-71
2022/07/01 13:26:46;;;;;;;4.93;4.55;;;;;;;;;;4995283;28;20114;-70
2022/07/01 13:29:11;;;;;;;7.75;5.05;;;;;;;;;;4994963;28;20050;-71
2022/07/01 13:31:37;;;;;;;5.28;4.57;;;;;;;;;;4994886;28;20034;-70
2022/07/01 13:34:02;;;;;;;6.55;4.80;;;;;;;;;;4995179;28;20446;-70
2022/07/01 13:36:28;;;;;;;7.07;5.30;;;;;;;;;;4994864;28;20030;-70
2022/07/01 13:38:53;;;;;;;12.13;6.88;;;;;;;;;;4994812;28;20018;-70
2022/07/01 13:41:21;;;;;;;7.03;5.35;;;;;;;;;;4994797;28;20030;-71
2022/07/01 13:43:46;;;;;;;4.22;3.80;;;;;;;;;;4994713;28;20026;-70
2022/07/01 13:46:12;;;;;;;8.07;4.97;;;;;;;;;;4977441;28;20097;-70
2022/07/01 13:48:37;;;;;;;8.77;4.90;;;;;;;;;;4994959;28;20025;-70
2022/07/01 13:51:02;;;;;;;5.30;4.90;;;;;;;;;;4994650;28;20033;-70
2022/07/01 13:53:29;;;;;;;7.43;4.80;;;;;;;;;;4994393;28;20050;-70
2022/07/01 13:55:54;;;;;;;6.07;4.95;;;;;;;;;;4977529;28;20105;-70
2022/07/01 13:58:20;;;;;;;5.88;4.38;;;;;;;;;;4995084;28;20042;-70
2022/07/01 14:00:46;;;;;;;5.70;4.97;;;;;;;;;;4977206;28;20031;-71
2022/07/01 14:03:11;;;;;;;8.10;5.20;;;;;;;;;;4994773;28;20521;-70
2022/07/01 14:05:36;;;;;;;7.35;5.45;;;;;;;;;;4994731;28;20384;-71
2022/07/01 14:08:03;;;;;;;5.30;4.25;;;;;;;;;;4994706;28;20109;-71
2022/07/01 14:10:28;;;;;;;4.38;3.83;;;;;;;;;;4994686;28;20066;-71
2022/07/01 14:12:54;;;;;;;4.95;4.20;;;;;;;;;;4994321;28;20060;-70
2022/07/01 14:15:19;;;;;;;5.18;3.95;;;;;;;;;;4977373;28;20060;-70
2022/07/01 14:17:45;;;;;;;5.80;4.22;;;;;;;;;;4994606;28;20025;-70
2022/07/01 14:20:11;;;;;;;4.93;4.50;;;;;;;;;;4994532;28;20026;-71
2022/07/01 14:22:36;;;;;;;5.30;4.15;;;;;;;;;;4994245;28;20022;-71
2022/07/01 14:25:02;;;;;;;6.32;4.20;;;;;;;;;;4994470;28;20034;-71
2022/07/01 14:27:27;;;;;;;5.80;3.97;;;;;;;;;;4994764;28;20045;-71
2022/07/01 14:29:52;;;;;;;4.22;3.83;;;;;;;;;;4994210;28;20022;-65
2022/07/01 14:32:21;;;;;;;5.32;3.90;;;;;;;;;;4996724;28;20396;-65
2022/07/01 14:38:15;;;;;;;4.15;3.60;;;;;;;;;;4998605;28;20041;-65
2022/07/01 14:40:40;;;;;;;4.25;3.90;;;;;;;;;;4998465;28;20109;-65
2022/07/01 14:43:06;;;;;;;4.00;3.70;;;;;;;;;;4998209;28;20477;-65
2022/07/01 14:45:31;;;;;;;4.25;3.90;;;;;;;;;;4998049;28;20532;-65
2022/07/01 14:47:56;;;;;;;4.18;3.65;;;;;;;;;;4998586;28;20018;-65
2022/07/01 14:50:22;;;;;;;4.72;4.03;;;;;;;;;;4998505;28;20045;-65
2022/07/01 14:52:48;;;;;;;5.32;3.83;;;;;;;;;;4980384;28;20043;-65
2022/07/01 14:55:14;;;;;;;4.57;3.78;;;;;;;;;;4998197;28;20031;-65
2022/07/01 14:57:39;;;;;;;4.15;3.83;;;;;;;;;;4998134;28;20445;-64
2022/07/01 15:00:05;;;;;;;4.13;3.67;;;;;;;;;;4998395;28;20101;-71
2022/07/01 15:02:30;;;;;;;5.05;4.03;;;;;;;;;;4998035;28;20022;-70